Impacts METAR Board
IDs:

KJFK - New York/Kennedy Int, NY, US

Updated at: 0600 UTC 24 Jan 2019
Potential Impact None Slight Moderate High
Time 23/18Z 23/19Z 23/20Z 23/21Z 23/22Z 23/23Z 24/00Z 24/01Z 24/02Z 24/03Z 24/04Z 24/05Z 24/06Z
Temp40 41 41 41 41 42 42 42 44 45 44 46 47
Dewpt24 28 31 34 37 38 39 40 42 44 44 45 47
Altim30.25 30.21 30.18 30.15 30.11 30.09 30.08 30.04 30.01 30.00 29.98 29.95 29.93
VIS10 10 10 10 10 10 10 10 10 10 10 10 9
CIG38 95 95 50 50 50 100 100 70 65 60 55 55
CoverBKNBKNBKNBKNBKNBKNOVCBKNBKNOVCOVCOVCOVC
FltCatVFRVFRVFRVFRVFRVFRVFRVFRVFRVFRVFRVFRVFR
WX-------------------------RA
WDir210170170180180180190200190180180190190
WSpd7 8 9 11 9 11 12 11 16 15 10 17 21
WGst-- -- -- -- -- -- -- -- -- -- -- -- 28
Raw hourly METARs
KJFK 231751Z 21007KT 10SM BKN038 BKN075 BKN250 04/M04 A3025 RMK AO2 SLP244 T00441044 10044 20000 58034
KJFK 231851Z 17008KT 10SM SCT038 BKN095 BKN250 05/M02 A3021 RMK AO2 SLP228 T00501022
KJFK 231951Z 17009KT 10SM FEW038 BKN095 BKN250 05/M01 A3018 RMK AO2 SLP220 T00501006
KJFK 232051Z 18011KT 10SM BKN050 BKN090 BKN250 05/01 A3015 RMK AO2 SLP210 T00500011 56034
KJFK 232151Z 18009KT 10SM BKN050 BKN100 BKN250 05/03 A3011 RMK AO2 SLP196 T00500028
KJFK 232251Z 18011KT 10SM BKN050 BKN250 06/03 A3009 RMK AO2 SLP188 T00560033
KJFK 232351Z 19012KT 10SM FEW050 BKN100 OVC180 06/04 A3008 RMK AO2 SLP184 T00560039 10056 20044 56026
KJFK 240051Z 20011KT 10SM FEW050 BKN100 BKN170 BKN250 06/04 A3004 RMK AO2 SLP173 T00560044
KJFK 240151Z 19016KT 10SM FEW050 BKN070 BKN110 BKN250 07/06 A3001 RMK AO2 SLP162 T00670056
KJFK 240251Z 18015KT 10SM BKN065 OVC110 07/07 A3000 RMK AO2 SLP157 T00720067 56027
KJFK 240351Z 18010KT 10SM OVC060 07/07 A2998 RMK AO2 SLP150 T00670067
KJFK 240451Z 19017KT 10SM FEW025 OVC055 08/07 A2995 RMK AO2 SLP141 T00780072 400781017
KJFK 240551Z 19021G28KT 9SM -RA SCT025 OVC055 08/08 A2993 RMK AO2 PK WND 20028/0549 RAB40 SLP133 P0000 60000 T00830083 10083 20056 58023



Page loaded:  06:04 UTC  |   10:04 PM Pacific  |   11:04 PM Mountain  |   12:04 AM Central  |   01:04 AM Eastern

 

ADVISORIES

FORECASTS

FORECASTS

OBSERVATIONS

USER TOOLS

ABOUT US